createdAt,value
2019-02-27T00:00:09.112Z,1.80
2019-02-27T00:01:06.578Z,1.80
2019-02-27T00:02:06.556Z,2.00
2019-02-27T00:03:06.547Z,1.90
2019-02-27T00:04:06.526Z,2.00
2019-02-27T00:05:08.361Z,1.70
2019-02-27T00:06:06.516Z,1.70
2019-02-27T00:07:06.495Z,1.90
2019-02-27T00:08:06.531Z,1.90
2019-02-27T00:09:06.480Z,1.70
2019-02-27T00:10:06.829Z,1.70
2019-02-27T00:11:06.465Z,1.80
2019-02-27T00:12:06.444Z,1.50
2019-02-27T00:13:06.445Z,1.70
2019-02-27T00:14:06.431Z,1.80
2019-02-27T00:15:06.417Z,1.70
2019-02-27T00:16:10.875Z,1.90
2019-02-27T00:17:08.254Z,1.90
2019-02-27T00:18:06.377Z,1.80
2019-02-27T00:19:06.373Z,1.70
2019-02-27T00:20:06.378Z,1.70
2019-02-27T00:21:10.169Z,1.70
2019-02-27T00:22:06.336Z,1.80
2019-02-27T00:23:06.325Z,1.80
2019-02-27T00:24:06.316Z,1.70
2019-02-27T00:25:06.313Z,2.00
2019-02-27T00:26:08.833Z,1.60
2019-02-27T00:27:06.287Z,1.80
2019-02-27T00:28:06.280Z,1.60
2019-02-27T00:29:06.258Z,1.90
2019-02-27T00:30:06.246Z,1.70
2019-02-27T00:31:06.254Z,1.90
2019-02-27T00:32:06.253Z,1.80
2019-02-27T00:33:06.216Z,2.10
2019-02-27T00:34:06.200Z,1.70
2019-02-27T00:35:07.335Z,1.70
2019-02-27T00:36:06.195Z,2.30
2019-02-27T00:37:06.181Z,1.70
2019-02-27T00:38:06.230Z,1.80
2019-02-27T00:39:06.154Z,1.80
2019-02-27T00:40:06.316Z,1.90
2019-02-27T00:41:06.145Z,1.90
2019-02-27T00:42:06.847Z,1.80
2019-02-27T00:43:06.111Z,1.80
2019-02-27T00:44:06.116Z,1.80
2019-02-27T00:45:07.169Z,1.70
2019-02-27T00:46:06.099Z,2.10
2019-02-27T00:47:06.070Z,1.80
2019-02-27T00:48:06.050Z,1.70
2019-02-27T00:49:06.065Z,1.80
2019-02-27T00:50:06.752Z,1.70
2019-02-27T00:51:06.080Z,1.60
2019-02-27T00:52:06.033Z,1.70
2019-02-27T00:53:06.000Z,1.90
2019-02-27T00:54:05.989Z,1.90
2019-02-27T00:55:05.987Z,1.90
2019-02-27T00:56:05.983Z,1.90
2019-02-27T00:57:05.971Z,1.90
2019-02-27T00:58:05.953Z,1.80
2019-02-27T00:59:05.938Z,2.20
2019-02-27T01:00:06.497Z,1.60
2019-02-27T01:01:05.911Z,2.00
2019-02-27T01:02:06.050Z,1.90
2019-02-27T01:03:05.894Z,1.60
2019-02-27T01:04:05.894Z,1.50
2019-02-27T01:05:06.176Z,1.60
2019-02-27T01:06:05.873Z,1.90
2019-02-27T01:07:05.864Z,1.80
2019-02-27T01:08:05.854Z,1.90
2019-02-27T01:09:06.374Z,1.80
2019-02-27T01:10:05.816Z,1.80
2019-02-27T01:11:05.815Z,1.70
2019-02-27T01:12:05.814Z,1.80
2019-02-27T01:13:05.786Z,1.80
2019-02-27T01:14:05.774Z,1.70
2019-02-27T01:15:07.960Z,1.90
2019-02-27T01:16:05.760Z,1.70
2019-02-27T01:17:05.786Z,1.70
2019-02-27T01:18:05.731Z,2.00
2019-02-27T01:19:05.734Z,1.90
2019-02-27T01:20:05.838Z,1.80
2019-02-27T01:21:05.725Z,1.70
2019-02-27T01:22:05.702Z,1.80
2019-02-27T01:23:05.707Z,1.80
2019-02-27T01:24:05.667Z,1.90
2019-02-27T01:25:05.668Z,1.60
2019-02-27T01:26:05.657Z,1.90
2019-02-27T01:27:05.678Z,2.10
2019-02-27T01:28:05.621Z,1.90
2019-02-27T01:53:59.625Z,2.00
2019-02-27T01:54:48.851Z,1.80
2019-02-27T01:55:46.407Z,1.70
2019-02-27T01:56:46.356Z,1.90
2019-02-27T01:57:46.353Z,1.80
2019-02-27T01:58:46.338Z,1.90
2019-02-27T01:59:50.053Z,1.90
2019-02-27T02:00:46.332Z,1.90
2019-02-27T02:01:46.300Z,1.80
2019-02-27T02:02:46.328Z,1.80
2019-02-27T02:03:47.550Z,2.10
2019-02-27T02:04:46.295Z,1.70
2019-02-27T02:05:46.273Z,1.60
2019-02-27T02:06:46.270Z,1.90
2019-02-27T02:07:46.253Z,1.80
2019-02-27T02:08:48.245Z,1.80
2019-02-27T02:09:46.236Z,1.90
2019-02-27T02:10:46.214Z,1.80
2019-02-27T02:11:46.210Z,1.90
2019-02-27T02:12:46.184Z,1.70
2019-02-27T02:13:48.267Z,1.90
2019-02-27T02:14:46.195Z,1.70
2019-02-27T02:15:46.165Z,1.70
2019-02-27T02:16:46.161Z,1.90
2019-02-27T02:17:46.151Z,1.90
2019-02-27T02:18:48.243Z,1.80
2019-02-27T02:19:46.135Z,2.00
2019-02-27T02:20:46.131Z,1.70
2019-02-27T02:21:46.088Z,1.60
2019-02-27T02:22:46.130Z,1.70
2019-02-27T02:23:47.825Z,1.90
2019-02-27T02:24:46.071Z,1.70
2019-02-27T02:25:46.055Z,2.10
2019-02-27T02:26:46.035Z,1.80
2019-02-27T02:27:46.034Z,1.90
2019-02-27T02:28:48.325Z,1.60
2019-02-27T02:29:46.024Z,2.00
2019-02-27T02:30:46.096Z,2.00
2019-02-27T02:31:45.990Z,1.60
2019-02-27T02:32:52.005Z,2.00
2019-02-27T02:33:45.981Z,1.90
2019-02-27T02:34:45.963Z,1.80
2019-02-27T02:35:49.575Z,1.70
2019-02-27T02:36:45.929Z,1.80
2019-02-27T02:37:45.929Z,1.90
2019-02-27T02:38:45.923Z,1.80
2019-02-27T02:39:45.913Z,2.00
2019-02-27T02:40:45.914Z,1.80
2019-02-27T02:41:47.933Z,1.80
2019-02-27T02:42:45.878Z,1.60
2019-02-27T02:43:45.887Z,1.90
2019-02-27T02:44:45.846Z,1.90
2019-02-27T02:45:45.855Z,2.40
2019-02-27T02:46:46.410Z,1.90
2019-02-27T02:47:45.826Z,2.00
2019-02-27T02:48:45.813Z,1.70
2019-02-27T02:49:45.819Z,1.80
2019-02-27T02:50:45.808Z,1.80
2019-02-27T02:51:45.787Z,1.70
2019-02-27T02:52:45.765Z,1.90
2019-02-27T02:53:48.463Z,1.60
2019-02-27T02:54:45.757Z,1.90
2019-02-27T02:55:48.805Z,1.60
2019-02-27T02:56:45.722Z,1.80
2019-02-27T02:57:45.721Z,1.90
2019-02-27T02:58:48.519Z,1.80
2019-02-27T02:59:45.696Z,2.10
2019-02-27T03:00:45.688Z,1.90
2019-02-27T03:01:49.382Z,1.90
2019-02-27T03:02:45.664Z,2.00
2019-02-27T03:03:45.670Z,1.80
2019-02-27T03:04:48.359Z,1.80
2019-02-27T03:05:45.650Z,1.80
2019-02-27T03:06:45.639Z,1.80
2019-02-27T03:07:45.763Z,1.80
2019-02-27T03:08:45.627Z,2.00
2019-02-27T03:09:45.695Z,1.90
2019-02-27T03:10:45.591Z,1.90
2019-02-27T03:11:45.589Z,1.60
2019-02-27T03:12:45.555Z,1.70
2019-02-27T03:13:45.606Z,2.00
2019-02-27T03:14:45.544Z,1.90
2019-02-27T03:15:45.541Z,1.90
2019-02-27T03:16:45.519Z,1.80
2019-02-27T03:17:45.499Z,1.90
2019-02-27T03:18:45.510Z,1.80
2019-02-27T03:19:45.473Z,1.90
2019-02-27T03:20:51.786Z,1.90
2019-02-27T03:21:46.348Z,1.80
2019-02-27T03:22:45.458Z,2.00
2019-02-27T03:23:50.999Z,1.80
2019-02-27T03:24:45.428Z,1.80
2019-02-27T03:25:45.435Z,1.80
2019-02-27T03:26:51.826Z,1.90
2019-02-27T03:27:45.408Z,1.80
2019-02-27T03:28:45.393Z,1.80
2019-02-27T03:29:51.963Z,1.80
2019-02-27T03:30:45.379Z,1.90
2019-02-27T03:31:45.362Z,1.80
2019-02-27T03:32:45.368Z,1.80
2019-02-27T03:33:45.328Z,1.90
2019-02-27T03:34:50.285Z,2.00
2019-02-27T03:35:45.334Z,2.10
2019-02-27T03:36:45.302Z,1.80
2019-02-27T03:37:48.401Z,1.60
2019-02-27T03:38:45.283Z,1.90
2019-02-27T03:39:45.269Z,1.70
2019-02-27T03:40:48.104Z,1.80
2019-02-27T03:41:45.247Z,1.90
2019-02-27T03:42:45.268Z,1.90
2019-02-27T03:43:46.106Z,1.90
2019-02-27T03:44:45.226Z,1.70
2019-02-27T03:45:45.219Z,1.90
2019-02-27T03:46:45.207Z,1.70
2019-02-27T03:47:45.228Z,1.70
2019-02-27T03:48:45.185Z,1.90
2019-02-27T03:49:45.160Z,1.80
2019-02-27T03:50:49.492Z,1.70
2019-02-27T03:51:45.148Z,1.90
2019-02-27T03:52:45.159Z,1.90
2019-02-27T03:53:46.573Z,1.80
2019-02-27T03:54:45.119Z,1.80
2019-02-27T03:55:45.120Z,1.90
2019-02-27T03:56:45.123Z,1.80
2019-02-27T03:57:45.096Z,1.80
2019-02-27T03:58:45.072Z,2.00
2019-02-27T03:59:45.066Z,1.80
2019-02-27T04:00:45.059Z,1.90
2019-02-27T04:01:45.043Z,1.80
2019-02-27T04:02:45.037Z,1.70
2019-02-27T04:03:45.028Z,1.90
2019-02-27T04:04:44.999Z,2.00
2019-02-27T04:05:46.224Z,1.80
2019-02-27T04:06:44.989Z,1.80
2019-02-27T04:07:44.969Z,2.00
2019-02-27T04:08:45.232Z,1.70
2019-02-27T04:09:44.948Z,1.70
2019-02-27T04:10:44.948Z,1.80
2019-02-27T04:11:44.943Z,1.90
2019-02-27T04:12:44.920Z,2.20
2019-02-27T04:13:44.962Z,1.70
2019-02-27T04:14:45.022Z,1.80
2019-02-27T04:15:44.906Z,1.60
2019-02-27T04:16:44.948Z,1.70
2019-02-27T04:17:44.867Z,1.70
2019-02-27T04:18:44.887Z,1.70
2019-02-27T04:19:44.887Z,1.80
2019-02-27T04:20:49.702Z,1.90
2019-02-27T04:21:44.833Z,1.90
2019-02-27T04:22:44.814Z,2.00
2019-02-27T04:23:49.069Z,1.60
2019-02-27T04:24:44.793Z,1.70
2019-02-27T04:25:44.773Z,1.90
2019-02-27T04:26:44.833Z,1.80
2019-02-27T04:27:44.765Z,1.70
2019-02-27T04:28:44.750Z,1.90
2019-02-27T04:29:44.765Z,1.80
2019-02-27T04:30:44.724Z,1.70
2019-02-27T04:31:44.745Z,1.70
2019-02-27T04:32:48.672Z,1.70
2019-02-27T04:33:46.049Z,1.80
2019-02-27T04:34:44.690Z,2.20
2019-02-27T04:35:44.669Z,1.70
2019-02-27T04:36:46.904Z,2.00
2019-02-27T04:37:44.649Z,1.70
2019-02-27T04:38:44.665Z,2.10
2019-02-27T04:39:44.642Z,2.00
2019-02-27T04:40:44.802Z,2.10
2019-02-27T04:41:44.644Z,1.80
2019-02-27T04:42:44.600Z,2.10
2019-02-27T04:43:44.587Z,1.90
2019-02-27T04:44:44.601Z,2.10
2019-02-27T04:45:46.719Z,1.70
2019-02-27T04:46:44.615Z,1.90
2019-02-27T04:47:44.542Z,1.60
2019-02-27T04:48:44.531Z,1.80
2019-02-27T04:49:44.520Z,1.80
2019-02-27T04:50:44.814Z,1.60
2019-02-27T04:51:44.516Z,1.70
2019-02-27T04:52:44.512Z,1.90
2019-02-27T04:53:44.475Z,1.60
2019-02-27T04:54:44.474Z,1.90
2019-02-27T04:55:44.459Z,1.60
2019-02-27T04:56:44.475Z,2.00
2019-02-27T04:57:44.463Z,1.80
2019-02-27T04:58:44.440Z,1.80
2019-02-27T04:59:44.413Z,1.70
2019-02-27T05:00:44.409Z,1.80
2019-02-27T05:01:44.419Z,2.00
2019-02-27T05:02:44.384Z,1.90
2019-02-27T05:03:44.369Z,1.80
2019-02-27T05:04:44.395Z,1.70
2019-02-27T05:05:44.366Z,1.90
2019-02-27T05:06:46.806Z,1.70
2019-02-27T05:07:44.406Z,1.90
2019-02-27T05:08:44.324Z,1.80
2019-02-27T05:09:44.316Z,1.70
2019-02-27T05:10:44.312Z,1.90
2019-02-27T05:11:47.465Z,1.90
2019-02-27T05:12:47.821Z,1.80
2019-02-27T05:13:44.281Z,1.70
2019-02-27T05:14:44.256Z,1.70
2019-02-27T05:15:44.257Z,1.70
2019-02-27T05:16:47.017Z,1.80
2019-02-27T05:17:44.324Z,1.90
2019-02-27T05:18:44.219Z,1.70
2019-02-27T05:19:44.209Z,1.80
2019-02-27T05:20:45.706Z,2.00
2019-02-27T05:21:44.214Z,1.80
2019-02-27T05:22:44.231Z,2.00
2019-02-27T05:23:44.151Z,1.80
2019-02-27T05:24:44.151Z,1.70
2019-02-27T05:25:44.139Z,1.70
2019-02-27T05:26:44.143Z,1.90
2019-02-27T05:27:44.137Z,2.00
2019-02-27T05:28:44.133Z,1.80
2019-02-27T05:29:44.096Z,2.00
2019-02-27T05:30:45.349Z,2.00
2019-02-27T05:31:44.084Z,1.60
2019-02-27T05:32:44.075Z,2.10
2019-02-27T05:33:44.064Z,1.80
2019-02-27T05:34:49.359Z,2.00
2019-02-27T05:35:44.035Z,1.80
2019-02-27T05:36:44.041Z,1.90
2019-02-27T05:37:44.010Z,1.90
2019-02-27T05:38:44.215Z,1.90
2019-02-27T05:39:43.985Z,2.00
2019-02-27T05:40:43.981Z,1.90
2019-02-27T05:41:43.983Z,2.00
2019-02-27T05:42:44.092Z,2.00
2019-02-27T05:43:47.714Z,1.80
2019-02-27T05:44:43.944Z,2.00
2019-02-27T05:45:43.925Z,1.90
2019-02-27T05:46:43.923Z,1.70
2019-02-27T05:47:45.656Z,1.80
2019-02-27T05:48:43.897Z,1.80
2019-02-27T05:49:43.928Z,1.80
2019-02-27T05:50:44.486Z,1.70
2019-02-27T05:51:43.873Z,1.90
2019-02-27T05:52:48.405Z,1.70
2019-02-27T05:53:43.842Z,1.80
2019-02-27T05:54:45.008Z,1.70
2019-02-27T05:55:43.858Z,1.70
2019-02-27T05:56:43.809Z,1.90
2019-02-27T05:57:43.811Z,1.60
2019-02-27T05:58:43.870Z,1.80
2019-02-27T05:59:43.791Z,1.70
2019-02-27T06:00:43.769Z,2.20
2019-02-27T06:01:43.786Z,1.70
2019-02-27T06:02:45.050Z,2.10
2019-02-27T06:03:43.744Z,1.90
2019-02-27T06:04:43.733Z,1.60
2019-02-27T06:05:49.627Z,1.90
2019-02-27T06:06:45.735Z,1.80
2019-02-27T06:07:43.707Z,2.00
2019-02-27T06:08:43.687Z,1.80
2019-02-27T06:09:44.507Z,1.80
2019-02-27T06:10:43.661Z,1.90
2019-02-27T06:11:43.663Z,1.80
2019-02-27T06:12:43.661Z,1.90
2019-02-27T06:13:45.025Z,1.80
2019-02-27T06:14:43.616Z,2.00
2019-02-27T06:15:43.612Z,2.50
2019-02-27T06:16:43.612Z,2.90
2019-02-27T06:17:46.402Z,3.00
2019-02-27T06:18:43.573Z,3.60
2019-02-27T06:19:43.660Z,3.50
2019-02-27T06:20:43.562Z,3.70
2019-02-27T06:21:43.547Z,3.50
2019-02-27T06:22:43.555Z,3.80
2019-02-27T06:23:43.544Z,3.90
2019-02-27T06:24:45.559Z,3.60
2019-02-27T06:25:43.498Z,3.80
2019-02-27T06:26:43.505Z,3.80
2019-02-27T06:27:43.516Z,3.90
2019-02-27T06:28:43.481Z,3.50
2019-02-27T06:29:43.478Z,3.60
2019-02-27T06:30:43.454Z,3.50
2019-02-27T06:31:43.436Z,3.80
2019-02-27T06:32:43.453Z,3.50
2019-02-27T06:33:45.704Z,3.60
2019-02-27T06:34:43.444Z,3.70
2019-02-27T06:35:43.393Z,3.40
2019-02-27T06:36:43.396Z,3.40
2019-02-27T06:37:43.388Z,3.60
2019-02-27T06:38:43.389Z,3.60
2019-02-27T06:39:43.365Z,3.20
2019-02-27T06:40:43.339Z,3.60
2019-02-27T06:41:43.333Z,3.60
2019-02-27T06:42:43.344Z,3.70
2019-02-27T06:43:43.317Z,3.70
2019-02-27T06:44:43.312Z,4.30
2019-02-27T06:45:46.411Z,3.50
2019-02-27T06:46:44.608Z,3.20
2019-02-27T06:47:43.284Z,3.60
2019-02-27T06:48:44.102Z,3.40
2019-02-27T06:49:43.251Z,3.70
2019-02-27T06:50:43.276Z,3.50
2019-02-27T06:51:43.244Z,3.60
2019-02-27T06:52:43.260Z,3.80
2019-02-27T06:53:43.198Z,3.50
2019-02-27T06:54:43.204Z,3.50
2019-02-27T06:55:43.179Z,3.60
2019-02-27T06:56:43.168Z,3.60
2019-02-27T06:57:43.171Z,3.60
2019-02-27T06:58:43.146Z,3.40
2019-02-27T06:59:43.135Z,3.30
2019-02-27T07:00:43.141Z,3.40
2019-02-27T07:01:45.053Z,3.70
2019-02-27T07:02:43.117Z,3.30
2019-02-27T07:03:43.105Z,3.20
2019-02-27T07:04:43.077Z,3.30
2019-02-27T07:05:45.529Z,3.30
2019-02-27T07:06:43.053Z,3.40
2019-02-27T07:07:43.064Z,3.10
2019-02-27T07:08:43.041Z,2.90
2019-02-27T07:09:43.198Z,3.30
2019-02-27T07:10:43.026Z,3.20
2019-02-27T07:11:46.242Z,3.20
2019-02-27T07:12:43.018Z,3.10
2019-02-27T07:13:43.019Z,3.20
2019-02-27T07:14:42.977Z,3.60
2019-02-27T07:15:47.794Z,3.30
2019-02-27T07:16:42.961Z,3.30
2019-02-27T07:17:42.936Z,3.00
2019-02-27T07:18:42.949Z,2.80
2019-02-27T07:19:42.950Z,3.40
2019-02-27T07:20:42.913Z,3.10
2019-02-27T07:21:42.972Z,3.00
2019-02-27T07:22:45.678Z,3.10
2019-02-27T07:23:42.962Z,3.30
2019-02-27T07:24:42.979Z,2.90
2019-02-27T07:25:42.953Z,3.20
2019-02-27T07:26:42.863Z,3.10
2019-02-27T07:27:42.900Z,2.70
2019-02-27T07:28:43.594Z,2.80
2019-02-27T07:29:43.058Z,3.10
2019-02-27T07:30:43.266Z,2.90
2019-02-27T07:31:42.808Z,3.00
2019-02-27T07:32:42.867Z,3.10
2019-02-27T07:33:42.791Z,2.80
2019-02-27T07:34:42.769Z,3.10
2019-02-27T07:35:42.744Z,3.00
2019-02-27T07:36:42.734Z,2.80
2019-02-27T07:37:47.214Z,3.00
2019-02-27T07:38:42.777Z,2.70
2019-02-27T07:39:42.735Z,2.70
2019-02-27T07:40:43.522Z,2.80
2019-02-27T07:41:42.719Z,2.80
2019-02-27T07:42:42.685Z,3.00
2019-02-27T07:43:42.726Z,2.70
2019-02-27T07:44:42.672Z,2.70
2019-02-27T07:45:45.343Z,3.00
2019-02-27T07:46:42.685Z,2.40
2019-02-27T07:47:42.638Z,2.70
2019-02-27T07:48:42.632Z,2.60
2019-02-27T07:49:42.607Z,2.50
2019-02-27T07:50:42.602Z,3.00
2019-02-27T07:51:42.608Z,2.40
2019-02-27T07:52:42.577Z,2.40
2019-02-27T07:53:42.575Z,2.60
2019-02-27T07:54:42.567Z,2.70
2019-02-27T07:55:42.535Z,3.00
2019-02-27T07:56:42.532Z,2.60
2019-02-27T07:57:42.585Z,2.90
2019-02-27T07:58:42.616Z,2.60
2019-02-27T07:59:42.499Z,3.30
2019-02-27T08:00:42.886Z,2.70
2019-02-27T08:01:43.985Z,2.80
2019-02-27T08:02:42.485Z,2.90
2019-02-27T08:03:44.636Z,2.90
2019-02-27T08:04:42.444Z,2.80
2019-02-27T08:05:42.968Z,2.40
2019-02-27T08:06:42.432Z,3.10
2019-02-27T08:07:42.415Z,2.70
2019-02-27T08:08:42.433Z,3.10
2019-02-27T08:09:42.390Z,2.60
2019-02-27T08:10:42.407Z,2.60
2019-02-27T08:11:47.140Z,2.90
2019-02-27T08:12:42.370Z,2.80
2019-02-27T08:13:42.445Z,3.00
2019-02-27T08:14:42.338Z,3.70
2019-02-27T08:15:42.350Z,3.20
2019-02-27T08:16:42.314Z,2.60
2019-02-27T08:17:42.333Z,3.00
2019-02-27T08:18:42.348Z,2.90
2019-02-27T08:19:42.865Z,2.80
2019-02-27T08:20:43.453Z,3.00
2019-02-27T08:21:42.260Z,2.80
2019-02-27T08:22:42.260Z,2.90
2019-02-27T08:23:42.265Z,2.80
2019-02-27T08:24:42.232Z,2.70
2019-02-27T08:25:42.229Z,2.90
2019-02-27T08:26:42.230Z,3.10
2019-02-27T08:27:43.803Z,2.50
2019-02-27T08:28:42.251Z,2.80
2019-02-27T08:29:42.179Z,2.70
2019-02-27T08:30:42.184Z,2.80
2019-02-27T08:31:42.162Z,2.60
2019-02-27T08:32:42.152Z,2.50
2019-02-27T08:33:42.180Z,2.90
2019-02-27T08:34:42.133Z,3.10
2019-02-27T08:35:42.133Z,2.50
2019-02-27T08:36:42.093Z,2.70
2019-02-27T08:37:42.120Z,2.80
2019-02-27T08:38:42.079Z,2.50
2019-02-27T08:39:42.100Z,2.80
2019-02-27T08:40:42.101Z,2.60
2019-02-27T08:41:42.036Z,2.40
2019-02-27T08:42:42.037Z,2.90
2019-02-27T08:43:42.090Z,2.90
2019-02-27T08:44:42.972Z,2.80
2019-02-27T08:45:41.994Z,2.70
2019-02-27T08:46:41.993Z,2.80
2019-02-27T08:47:43.475Z,2.60
2019-02-27T08:48:41.965Z,2.60
2019-02-27T08:49:41.977Z,2.70
2019-02-27T08:50:42.423Z,2.80
2019-02-27T08:51:42.629Z,3.40
2019-02-27T08:52:41.924Z,2.90
2019-02-27T08:53:42.003Z,3.10
2019-02-27T08:54:41.926Z,2.90
2019-02-27T08:55:41.895Z,2.80
2019-02-27T08:56:44.018Z,2.80
2019-02-27T08:57:41.902Z,3.00
2019-02-27T08:58:41.849Z,2.70
2019-02-27T08:59:41.863Z,2.70
2019-02-27T09:00:41.820Z,2.70
2019-02-27T09:01:41.871Z,2.40
2019-02-27T09:02:41.814Z,2.70
2019-02-27T09:03:41.798Z,2.60
2019-02-27T09:04:42.911Z,2.70
2019-02-27T09:05:42.035Z,2.70
2019-02-27T09:06:41.766Z,2.80
2019-02-27T09:07:43.088Z,2.90
2019-02-27T09:08:44.092Z,3.00
2019-02-27T09:09:41.771Z,2.70
2019-02-27T09:10:41.724Z,3.00
2019-02-27T09:11:42.125Z,2.60
2019-02-27T09:12:45.351Z,2.70
2019-02-27T09:13:41.679Z,2.70
2019-02-27T09:14:41.687Z,3.10
2019-02-27T09:15:41.896Z,2.80
2019-02-27T09:16:41.667Z,3.10
2019-02-27T09:17:41.666Z,2.70
2019-02-27T09:18:41.645Z,2.90
2019-02-27T09:19:45.332Z,2.80
2019-02-27T09:20:41.622Z,2.90
2019-02-27T09:21:41.604Z,2.80
2019-02-27T09:22:41.642Z,2.70
2019-02-27T09:23:41.593Z,2.60
2019-02-27T09:24:41.581Z,2.80
2019-02-27T09:25:42.310Z,2.50
2019-02-27T09:26:42.518Z,2.40
2019-02-27T09:27:41.531Z,2.70
2019-02-27T09:28:45.207Z,2.50
2019-02-27T09:29:41.531Z,2.80
2019-02-27T09:30:41.550Z,2.90
2019-02-27T09:31:50.566Z,2.60
2019-02-27T09:32:43.342Z,2.60
2019-02-27T09:33:41.477Z,2.80
2019-02-27T09:34:41.499Z,2.70
2019-02-27T09:35:41.443Z,2.60
2019-02-27T09:36:43.271Z,2.50
2019-02-27T09:37:41.428Z,2.60
2019-02-27T09:38:41.613Z,2.60
2019-02-27T09:39:41.420Z,2.50
2019-02-27T09:40:41.424Z,2.20
2019-02-27T09:41:46.038Z,2.80
2019-02-27T09:42:41.687Z,2.70
2019-02-27T09:43:45.386Z,3.00
2019-02-27T09:44:41.361Z,3.10
2019-02-27T09:45:46.222Z,2.50
2019-02-27T09:46:41.330Z,2.50
2019-02-27T09:47:41.354Z,2.50
2019-02-27T09:48:41.329Z,2.40
2019-02-27T09:49:41.581Z,2.50
2019-02-27T09:50:41.536Z,2.60
2019-02-27T09:51:41.286Z,2.50
2019-02-27T09:52:41.275Z,2.70
2019-02-27T09:53:41.783Z,2.50
2019-02-27T09:54:41.259Z,2.60
2019-02-27T09:55:41.238Z,2.50
2019-02-27T09:56:41.232Z,2.30
2019-02-27T09:57:42.199Z,2.70
2019-02-27T09:58:45.274Z,2.30
2019-02-27T09:59:41.206Z,2.30
2019-02-27T10:00:41.208Z,2.40
2019-02-27T10:01:41.174Z,2.70
2019-02-27T10:02:43.175Z,2.20
2019-02-27T10:03:41.142Z,2.50
2019-02-27T10:04:41.161Z,2.40
2019-02-27T10:05:41.134Z,2.70
2019-02-27T10:06:42.824Z,2.80
2019-02-27T10:07:41.196Z,2.70
2019-02-27T10:08:41.198Z,2.30
2019-02-27T10:09:41.156Z,2.30
2019-02-27T10:10:44.721Z,2.80
2019-02-27T10:11:41.070Z,2.70
2019-02-27T10:12:42.346Z,2.80
2019-02-27T10:13:41.043Z,2.60
2019-02-27T10:14:41.060Z,2.30
2019-02-27T10:15:41.017Z,2.50
2019-02-27T10:16:41.102Z,2.70
2019-02-27T10:17:43.603Z,2.40
2019-02-27T10:18:40.988Z,2.40
2019-02-27T10:19:41.114Z,2.30
2019-02-27T10:20:41.523Z,2.50
2019-02-27T10:21:41.346Z,2.30
2019-02-27T10:22:40.961Z,2.70
2019-02-27T10:23:40.934Z,2.60
2019-02-27T10:24:40.930Z,2.60
2019-02-27T10:25:43.437Z,2.10
2019-02-27T10:26:40.947Z,2.30
2019-02-27T10:27:40.912Z,2.30
2019-02-27T10:28:40.977Z,2.90
2019-02-27T10:29:40.878Z,2.40
2019-02-27T10:30:40.899Z,2.50
2019-02-27T10:31:40.865Z,2.40
2019-02-27T10:32:40.879Z,2.10
2019-02-27T10:33:42.885Z,2.60
2019-02-27T10:34:40.814Z,2.40
2019-02-27T10:35:40.896Z,2.40
2019-02-27T10:36:41.027Z,2.60
2019-02-27T10:37:40.913Z,2.70
2019-02-27T10:38:40.787Z,3.30
2019-02-27T10:39:40.779Z,2.50
2019-02-27T10:40:40.773Z,3.00
2019-02-27T10:41:40.749Z,2.80
2019-02-27T10:42:40.760Z,2.70
2019-02-27T10:43:40.731Z,2.60
2019-02-27T10:44:40.709Z,3.00
2019-02-27T10:45:42.224Z,2.70
2019-02-27T10:46:40.741Z,2.50
2019-02-27T10:47:40.686Z,2.90
2019-02-27T10:48:40.667Z,2.60
2019-02-27T10:49:40.774Z,2.50
2019-02-27T10:50:40.665Z,2.70
2019-02-27T10:51:41.535Z,3.00
2019-02-27T10:52:40.646Z,2.80
2019-02-27T10:53:40.645Z,2.70
2019-02-27T10:54:40.600Z,2.70
2019-02-27T10:55:40.633Z,2.50
2019-02-27T10:56:40.650Z,2.50
2019-02-27T10:57:40.593Z,2.50
2019-02-27T10:58:40.639Z,3.00
2019-02-27T10:59:40.570Z,2.70
2019-02-27T11:00:40.554Z,2.70
2019-02-27T11:01:40.530Z,2.60
2019-02-27T11:02:40.531Z,3.00
2019-02-27T11:03:40.519Z,3.60
2019-02-27T11:04:40.495Z,4.10
2019-02-27T11:05:40.614Z,4.10
2019-02-27T11:06:40.509Z,3.60
2019-02-27T11:07:40.471Z,3.50
2019-02-27T11:08:40.458Z,3.70
2019-02-27T11:09:41.274Z,3.60
2019-02-27T11:10:40.444Z,3.80
2019-02-27T11:11:40.442Z,3.40
2019-02-27T11:12:40.434Z,3.90
2019-02-27T11:13:40.407Z,4.10
2019-02-27T11:14:40.499Z,3.90
2019-02-27T11:15:41.561Z,4.50
2019-02-27T11:16:40.383Z,3.60
2019-02-27T11:17:40.389Z,3.80
2019-02-27T11:18:40.360Z,3.20
2019-02-27T11:19:40.780Z,3.80
2019-02-27T11:20:40.401Z,3.10
2019-02-27T11:21:40.348Z,2.90
2019-02-27T11:22:40.435Z,3.20
2019-02-27T11:23:41.249Z,3.50
2019-02-27T11:24:40.468Z,3.30
2019-02-27T11:25:40.287Z,3.10
2019-02-27T11:26:40.308Z,3.60
2019-02-27T11:27:40.307Z,4.20
2019-02-27T11:28:42.483Z,3.50
2019-02-27T11:29:40.317Z,3.00
2019-02-27T11:30:40.272Z,3.60
2019-02-27T11:31:42.313Z,3.80
2019-02-27T11:32:40.198Z,3.30
2019-02-27T11:33:40.198Z,3.10
2019-02-27T11:34:40.173Z,3.50
2019-02-27T11:35:40.205Z,3.40
2019-02-27T11:36:40.177Z,3.70
2019-02-27T11:37:40.139Z,3.50
2019-02-27T11:38:40.263Z,4.10
2019-02-27T11:39:40.121Z,4.10
2019-02-27T11:40:42.611Z,4.20
2019-02-27T11:41:40.120Z,3.50
2019-02-27T11:42:40.170Z,4.30
2019-02-27T11:43:40.838Z,3.60
2019-02-27T11:44:40.122Z,3.90
2019-02-27T11:45:40.074Z,3.80
2019-02-27T11:46:40.069Z,3.80
2019-02-27T11:47:45.063Z,3.90
2019-02-27T11:48:40.039Z,3.80
2019-02-27T11:49:40.029Z,3.30
2019-02-27T11:50:40.096Z,3.30
2019-02-27T11:51:39.994Z,3.90
2019-02-27T11:52:48.570Z,3.10
2019-02-27T11:53:40.017Z,3.30
2019-02-27T11:54:42.976Z,2.70
2019-02-27T11:55:39.963Z,2.80
2019-02-27T11:56:39.947Z,3.20
2019-02-27T11:57:39.923Z,3.30
2019-02-27T11:58:39.954Z,3.10
2019-02-27T11:59:39.912Z,3.10
2019-02-27T12:00:39.899Z,3.00
2019-02-27T12:01:39.976Z,3.00
2019-02-27T12:02:39.876Z,3.60
2019-02-27T12:03:39.953Z,3.00
2019-02-27T12:04:39.852Z,2.70
2019-02-27T12:05:39.837Z,2.80
2019-02-27T12:06:41.614Z,3.40
2019-02-27T12:07:39.855Z,2.80
2019-02-27T12:08:39.818Z,3.30
2019-02-27T12:09:39.823Z,2.80
2019-02-27T12:10:39.801Z,2.70
2019-02-27T12:11:39.819Z,2.40
2019-02-27T12:12:39.797Z,2.40
2019-02-27T12:13:39.774Z,2.90
2019-02-27T12:14:39.788Z,2.50
2019-02-27T12:15:43.378Z,3.10
2019-02-27T12:16:39.752Z,3.10
2019-02-27T12:17:39.753Z,2.70
2019-02-27T12:18:39.724Z,2.50
2019-02-27T12:19:42.523Z,2.10
2019-02-27T12:20:39.681Z,2.20
2019-02-27T12:21:39.695Z,2.90
2019-02-27T12:22:39.662Z,2.20
2019-02-27T12:23:41.249Z,2.60
2019-02-27T12:24:39.656Z,2.40
2019-02-27T12:25:39.655Z,2.20
2019-02-27T12:26:39.650Z,2.10
2019-02-27T12:27:49.147Z,2.30
2019-02-27T12:28:39.620Z,2.20
2019-02-27T12:29:39.651Z,2.30
2019-02-27T12:30:39.673Z,2.40
2019-02-27T12:31:39.642Z,2.20
2019-02-27T12:32:39.588Z,2.60
2019-02-27T12:33:39.624Z,2.70
2019-02-27T12:34:39.588Z,2.50
2019-02-27T12:35:44.177Z,2.10
2019-02-27T12:36:40.613Z,2.20
2019-02-27T12:37:39.657Z,2.30
2019-02-27T12:38:42.295Z,2.10
2019-02-27T12:39:39.502Z,2.00
2019-02-27T12:40:39.478Z,2.20
2019-02-27T12:41:39.472Z,2.20
2019-02-27T12:42:42.507Z,2.20
2019-02-27T12:43:39.476Z,2.00
2019-02-27T12:44:39.435Z,2.20
2019-02-27T12:45:39.848Z,2.00
2019-02-27T12:46:39.453Z,2.20
2019-02-27T12:47:40.679Z,2.00
2019-02-27T12:48:39.398Z,1.90
2019-02-27T12:49:40.463Z,3.20
2019-02-27T12:50:39.423Z,2.10
2019-02-27T12:51:39.359Z,2.20
2019-02-27T12:52:44.396Z,2.10
2019-02-27T12:53:39.361Z,2.00
2019-02-27T12:54:39.342Z,1.90
2019-02-27T12:55:39.325Z,2.20
2019-02-27T12:56:43.265Z,2.10
2019-02-27T12:57:39.356Z,2.20
2019-02-27T12:58:39.308Z,2.50
2019-02-27T12:59:39.282Z,1.90
2019-02-27T13:00:39.898Z,2.00
2019-02-27T13:01:39.342Z,2.60
2019-02-27T13:02:39.247Z,2.20
2019-02-27T13:03:42.247Z,2.10
2019-02-27T13:04:39.249Z,2.20
2019-02-27T13:05:42.620Z,2.20
2019-02-27T13:06:39.252Z,2.00
2019-02-27T13:07:39.228Z,2.40
2019-02-27T13:08:39.184Z,2.00
2019-02-27T13:09:39.182Z,2.20
2019-02-27T13:10:39.157Z,2.20
2019-02-27T13:11:41.916Z,1.90
2019-02-27T13:12:39.116Z,2.80
2019-02-27T13:13:39.157Z,3.00
2019-02-27T13:14:39.216Z,2.00
2019-02-27T13:15:41.155Z,2.10
2019-02-27T13:16:39.101Z,2.30
2019-02-27T13:17:39.081Z,2.00
2019-02-27T13:18:39.090Z,2.40
2019-02-27T13:19:39.135Z,2.10
2019-02-27T13:20:39.101Z,2.10
2019-02-27T13:21:39.024Z,2.30
2019-02-27T13:22:39.054Z,2.10
2019-02-27T13:23:42.259Z,2.10
2019-02-27T13:24:39.049Z,2.50
2019-02-27T13:25:38.986Z,2.10
2019-02-27T13:26:38.979Z,1.90
2019-02-27T13:27:40.315Z,2.10
2019-02-27T13:28:38.953Z,2.10
2019-02-27T13:29:38.968Z,2.10
2019-02-27T13:30:41.364Z,2.10
2019-02-27T13:31:38.969Z,1.90
2019-02-27T13:32:38.954Z,2.20
2019-02-27T13:33:39.039Z,2.50
2019-02-27T13:34:38.915Z,2.20
2019-02-27T13:35:38.909Z,2.00
2019-02-27T13:36:41.670Z,2.00
2019-02-27T13:37:43.631Z,2.20
2019-02-27T13:38:38.864Z,2.20
2019-02-27T13:39:38.865Z,1.90
2019-02-27T13:40:38.926Z,1.80
2019-02-27T13:41:38.837Z,1.90
2019-02-27T13:42:38.814Z,1.90